sensor_id;sensor_type;location;lat;lon;timestamp;temperature;humidity
12769;DHT22;6448;48.916;8.990;2023-02-19T00:00:37;15.00;62.40
12769;DHT22;6448;48.916;8.990;2023-02-19T00:01:40;15.00;62.50
12769;DHT22;6448;48.916;8.990;2023-02-19T00:02:41;15.00;62.40
12769;DHT22;6448;48.916;8.990;2023-02-19T00:03:49;15.10;62.60
12769;DHT22;6448;48.916;8.990;2023-02-19T00:04:51;14.90;62.40
12769;DHT22;6448;48.916;8.990;2023-02-19T00:05:53;15.00;62.60
12769;DHT22;6448;48.916;8.990;2023-02-19T00:06:54;15.10;62.60
12769;DHT22;6448;48.916;8.990;2023-02-19T00:07:57;14.90;62.50
12769;DHT22;6448;48.916;8.990;2023-02-19T00:08:58;15.00;62.50
12769;DHT22;6448;48.916;8.990;2023-02-19T00:10:01;14.90;62.50
12769;DHT22;6448;48.916;8.990;2023-02-19T00:11:04;14.90;62.50
12769;DHT22;6448;48.916;8.990;2023-02-19T00:12:06;15.00;63.40
12769;DHT22;6448;48.916;8.990;2023-02-19T00:13:08;14.90;62.50
12769;DHT22;6448;48.916;8.990;2023-02-19T00:14:10;14.80;62.30
12769;DHT22;6448;48.916;8.990;2023-02-19T00:15:15;14.90;62.50
12769;DHT22;6448;48.916;8.990;2023-02-19T00:16:18;15.00;62.30
12769;DHT22;6448;48.916;8.990;2023-02-19T00:17:23;14.90;62.50
12769;DHT22;6448;48.916;8.990;2023-02-19T00:18:25;14.90;62.60
12769;DHT22;6448;48.916;8.990;2023-02-19T00:19:27;14.90;62.40
12769;DHT22;6448;48.916;8.990;2023-02-19T00:20:29;14.90;62.40
12769;DHT22;6448;48.916;8.990;2023-02-19T00:21:30;14.90;62.40
12769;DHT22;6448;48.916;8.990;2023-02-19T00:22:32;14.90;62.50
12769;DHT22;6448;48.916;8.990;2023-02-19T00:23:33;14.90;62.50
12769;DHT22;6448;48.916;8.990;2023-02-19T00:24:35;14.90;62.60
12769;DHT22;6448;48.916;8.990;2023-02-19T00:25:37;14.90;62.60
12769;DHT22;6448;48.916;8.990;2023-02-19T00:26:40;14.80;62.60
12769;DHT22;6448;48.916;8.990;2023-02-19T00:27:41;14.70;62.50
12769;DHT22;6448;48.916;8.990;2023-02-19T00:28:44;14.90;62.70
12769;DHT22;6448;48.916;8.990;2023-02-19T00:29:45;14.80;62.60
12769;DHT22;6448;48.916;8.990;2023-02-19T00:30:47;14.80;62.60
12769;DHT22;6448;48.916;8.990;2023-02-19T00:31:48;14.80;62.60
12769;DHT22;6448;48.916;8.990;2023-02-19T00:32:50;14.80;62.70
12769;DHT22;6448;48.916;8.990;2023-02-19T00:33:52;14.90;62.70
12769;DHT22;6448;48.916;8.990;2023-02-19T00:34:54;14.80;62.80
12769;DHT22;6448;48.916;8.990;2023-02-19T00:35:58;14.80;62.70
12769;DHT22;6448;48.916;8.990;2023-02-19T00:37:00;14.80;62.80
12769;DHT22;6448;48.916;8.990;2023-02-19T00:38:02;14.70;62.80
12769;DHT22;6448;48.916;8.990;2023-02-19T00:39:04;14.80;62.90
12769;DHT22;6448;48.916;8.990;2023-02-19T00:40:07;14.90;63.10
12769;DHT22;6448;48.916;8.990;2023-02-19T00:41:11;14.70;63.00
12769;DHT22;6448;48.916;8.990;2023-02-19T00:42:21;14.80;63.10
12769;DHT22;6448;48.916;8.990;2023-02-19T00:43:23;14.70;63.10
12769;DHT22;6448;48.916;8.990;2023-02-19T00:44:24;14.70;63.00
12769;DHT22;6448;48.916;8.990;2023-02-19T00:45:26;14.70;63.00
12769;DHT22;6448;48.916;8.990;2023-02-19T00:46:28;15.00;63.10
12769;DHT22;6448;48.916;8.990;2023-02-19T00:47:31;15.10;63.40
12769;DHT22;6448;48.916;8.990;2023-02-19T00:48:31;14.70;63.00
12769;DHT22;6448;48.916;8.990;2023-02-19T00:49:34;14.70;63.10
12769;DHT22;6448;48.916;8.990;2023-02-19T00:50:36;14.70;63.10
12769;DHT22;6448;48.916;8.990;2023-02-19T00:51:37;14.70;63.00
12769;DHT22;6448;48.916;8.990;2023-02-19T00:52:39;14.70;63.20
12769;DHT22;6448;48.916;8.990;2023-02-19T00:53:47;14.70;63.30
12769;DHT22;6448;48.916;8.990;2023-02-19T00:54:53;14.70;63.30
12769;DHT22;6448;48.916;8.990;2023-02-19T00:55:55;15.00;63.40
12769;DHT22;6448;48.916;8.990;2023-02-19T00:57:00;14.80;63.40
12769;DHT22;6448;48.916;8.990;2023-02-19T00:58:02;14.70;63.30
12769;DHT22;6448;48.916;8.990;2023-02-19T00:59:03;14.70;63.20
12769;DHT22;6448;48.916;8.990;2023-02-19T01:00:06;14.70;63.30
12769;DHT22;6448;48.916;8.990;2023-02-19T01:01:08;14.70;63.40
12769;DHT22;6448;48.916;8.990;2023-02-19T01:02:09;14.80;63.40
12769;DHT22;6448;48.916;8.990;2023-02-19T01:03:10;14.70;63.30
12769;DHT22;6448;48.916;8.990;2023-02-19T01:04:15;14.80;63.30
12769;DHT22;6448;48.916;8.990;2023-02-19T01:05:16;14.80;63.30
12769;DHT22;6448;48.916;8.990;2023-02-19T01:06:19;14.70;64.00
12769;DHT22;6448;48.916;8.990;2023-02-19T01:07:20;14.90;63.40
12769;DHT22;6448;48.916;8.990;2023-02-19T01:08:25;14.70;63.20
12769;DHT22;6448;48.916;8.990;2023-02-19T01:09:27;14.70;63.30
12769;DHT22;6448;48.916;8.990;2023-02-19T01:10:33;14.80;63.20
12769;DHT22;6448;48.916;8.990;2023-02-19T01:11:34;14.90;63.30
12769;DHT22;6448;48.916;8.990;2023-02-19T01:12:41;14.70;63.10
12769;DHT22;6448;48.916;8.990;2023-02-19T01:13:42;14.80;63.20
12769;DHT22;6448;48.916;8.990;2023-02-19T01:14:44;15.00;63.30
12769;DHT22;6448;48.916;8.990;2023-02-19T01:15:50;14.80;63.10
12769;DHT22;6448;48.916;8.990;2023-02-19T01:16:52;14.80;63.10
12769;DHT22;6448;48.916;8.990;2023-02-19T01:17:53;14.80;62.90
12769;DHT22;6448;48.916;8.990;2023-02-19T01:18:55;14.70;63.10
12769;DHT22;6448;48.916;8.990;2023-02-19T01:19:59;15.00;63.30
12769;DHT22;6448;48.916;8.990;2023-02-19T01:21:04;14.90;63.30
12769;DHT22;6448;48.916;8.990;2023-02-19T01:22:06;14.80;63.20
12769;DHT22;6448;48.916;8.990;2023-02-19T01:23:10;14.90;63.20
12769;DHT22;6448;48.916;8.990;2023-02-19T01:24:11;14.80;63.20
12769;DHT22;6448;48.916;8.990;2023-02-19T01:25:13;14.80;63.10
12769;DHT22;6448;48.916;8.990;2023-02-19T01:26:21;14.80;63.10
12769;DHT22;6448;48.916;8.990;2023-02-19T01:27:23;14.90;63.20
12769;DHT22;6448;48.916;8.990;2023-02-19T01:28:28;14.80;63.10
12769;DHT22;6448;48.916;8.990;2023-02-19T01:29:32;14.80;63.10
12769;DHT22;6448;48.916;8.990;2023-02-19T01:30:39;14.80;63.10
12769;DHT22;6448;48.916;8.990;2023-02-19T01:31:40;14.80;63.00
12769;DHT22;6448;48.916;8.990;2023-02-19T01:32:49;14.80;63.80
12769;DHT22;6448;48.916;8.990;2023-02-19T01:33:54;14.80;63.20
12769;DHT22;6448;48.916;8.990;2023-02-19T01:35:00;14.80;63.10
12769;DHT22;6448;48.916;8.990;2023-02-19T01:36:05;14.80;63.10
12769;DHT22;6448;48.916;8.990;2023-02-19T01:37:08;14.80;63.10
12769;DHT22;6448;48.916;8.990;2023-02-19T01:38:11;14.80;63.00
12769;DHT22;6448;48.916;8.990;2023-02-19T01:39:12;14.80;63.10
12769;DHT22;6448;48.916;8.990;2023-02-19T01:40:14;14.80;63.10
12769;DHT22;6448;48.916;8.990;2023-02-19T01:41:17;14.80;63.00
12769;DHT22;6448;48.916;8.990;2023-02-19T01:42:19;14.80;63.10
12769;DHT22;6448;48.916;8.990;2023-02-19T01:43:22;14.80;63.00
12769;DHT22;6448;48.916;8.990;2023-02-19T01:49:30;14.70;63.10
12769;DHT22;6448;48.916;8.990;2023-02-19T01:51:14;14.80;63.10
12769;DHT22;6448;48.916;8.990;2023-02-19T01:52:42;14.80;63.10
12769;DHT22;6448;48.916;8.990;2023-02-19T01:53:53;14.80;63.20
12769;DHT22;6448;48.916;8.990;2023-02-19T01:55:18;14.80;63.10
12769;DHT22;6448;48.916;8.990;2023-02-19T01:56:29;14.80;63.10
12769;DHT22;6448;48.916;8.990;2023-02-19T01:58:29;14.80;63.10
12769;DHT22;6448;48.916;8.990;2023-02-19T02:06:00;14.70;63.40
12769;DHT22;6448;48.916;8.990;2023-02-19T02:08:13;14.70;63.50
12769;DHT22;6448;48.916;8.990;2023-02-19T02:10:45;14.70;63.60
12769;DHT22;6448;48.916;8.990;2023-02-19T02:16:41;14.70;64.00
12769;DHT22;6448;48.916;8.990;2023-02-19T02:18:11;14.60;63.90
12769;DHT22;6448;48.916;8.990;2023-02-19T02:20:05;14.50;63.80
12769;DHT22;6448;48.916;8.990;2023-02-19T02:22:02;14.60;63.80
12769;DHT22;6448;48.916;8.990;2023-02-19T02:23:17;14.50;63.80
12769;DHT22;6448;48.916;8.990;2023-02-19T02:28:32;14.50;63.80
12769;DHT22;6448;48.916;8.990;2023-02-19T02:30:21;14.50;63.90
12769;DHT22;6448;48.916;8.990;2023-02-19T02:31:42;14.60;63.90
12769;DHT22;6448;48.916;8.990;2023-02-19T02:33:02;14.60;63.80
12769;DHT22;6448;48.916;8.990;2023-02-19T02:34:14;14.60;63.90
12769;DHT22;6448;48.916;8.990;2023-02-19T02:35:33;14.50;63.80
12769;DHT22;6448;48.916;8.990;2023-02-19T02:36:43;14.50;63.80
12769;DHT22;6448;48.916;8.990;2023-02-19T02:38:04;14.60;63.80
12769;DHT22;6448;48.916;8.990;2023-02-19T02:39:18;14.50;63.90
12769;DHT22;6448;48.916;8.990;2023-02-19T02:40:40;14.60;64.00
12769;DHT22;6448;48.916;8.990;2023-02-19T02:41:57;14.50;63.90
12769;DHT22;6448;48.916;8.990;2023-02-19T02:43:36;14.50;64.00
12769;DHT22;6448;48.916;8.990;2023-02-19T02:45:36;14.60;64.00
12769;DHT22;6448;48.916;8.990;2023-02-19T02:47:19;14.40;64.10
12769;DHT22;6448;48.916;8.990;2023-02-19T02:48:55;14.40;64.10
12769;DHT22;6448;48.916;8.990;2023-02-19T02:53:48;14.40;64.10
12769;DHT22;6448;48.916;8.990;2023-02-19T02:54:34;14.40;64.10
12769;DHT22;6448;48.916;8.990;2023-02-19T02:56:47;14.40;64.10
12769;DHT22;6448;48.916;8.990;2023-02-19T02:57:43;14.40;64.10
12769;DHT22;6448;48.916;8.990;2023-02-19T02:59:07;14.30;64.00
12769;DHT22;6448;48.916;8.990;2023-02-19T03:00:23;14.50;64.10
12769;DHT22;6448;48.916;8.990;2023-02-19T03:01:36;14.50;64.00
12769;DHT22;6448;48.916;8.990;2023-02-19T03:03:14;14.30;63.90
12769;DHT22;6448;48.916;8.990;2023-02-19T03:04:36;14.40;64.10
12769;DHT22;6448;48.916;8.990;2023-02-19T03:06:02;14.50;64.10
12769;DHT22;6448;48.916;8.990;2023-02-19T03:07:15;14.40;64.00
12769;DHT22;6448;48.916;8.990;2023-02-19T03:09:00;14.40;64.00
12769;DHT22;6448;48.916;8.990;2023-02-19T03:12:37;14.50;64.00
12769;DHT22;6448;48.916;8.990;2023-02-19T03:14:35;14.30;63.80
12769;DHT22;6448;48.916;8.990;2023-02-19T03:16:21;14.30;63.80
12769;DHT22;6448;48.916;8.990;2023-02-19T03:18:08;14.40;63.90
12769;DHT22;6448;48.916;8.990;2023-02-19T03:19:45;14.30;64.00
12769;DHT22;6448;48.916;8.990;2023-02-19T03:22:51;14.20;64.10
12769;DHT22;6448;48.916;8.990;2023-02-19T03:24:36;14.30;64.20
12769;DHT22;6448;48.916;8.990;2023-02-19T03:26:21;14.10;64.10
12769;DHT22;6448;48.916;8.990;2023-02-19T03:27:32;14.10;64.10
12769;DHT22;6448;48.916;8.990;2023-02-19T03:31:32;14.10;64.30
12769;DHT22;6448;48.916;8.990;2023-02-19T03:32:52;14.10;64.20
12769;DHT22;6448;48.916;8.990;2023-02-19T03:35:48;14.10;64.20
12769;DHT22;6448;48.916;8.990;2023-02-19T03:37:03;14.00;64.00
12769;DHT22;6448;48.916;8.990;2023-02-19T03:38:47;14.00;64.00
12769;DHT22;6448;48.916;8.990;2023-02-19T03:40:20;14.00;64.10
12769;DHT22;6448;48.916;8.990;2023-02-19T03:42:41;14.10;64.00
12769;DHT22;6448;48.916;8.990;2023-02-19T03:43:51;14.00;64.00
12769;DHT22;6448;48.916;8.990;2023-02-19T04:33:48;13.70;64.20
12769;DHT22;6448;48.916;8.990;2023-02-19T04:35:20;13.90;64.30
12769;DHT22;6448;48.916;8.990;2023-02-19T04:37:02;13.60;64.20
12769;DHT22;6448;48.916;8.990;2023-02-19T04:38:15;13.50;64.20
12769;DHT22;6448;48.916;8.990;2023-02-19T04:39:39;13.50;64.20
12769;DHT22;6448;48.916;8.990;2023-02-19T04:41:28;13.60;64.40
12769;DHT22;6448;48.916;8.990;2023-02-19T04:42:56;13.60;64.40
12769;DHT22;6448;48.916;8.990;2023-02-19T04:44:10;13.40;64.40
12769;DHT22;6448;48.916;8.990;2023-02-19T04:45:20;13.60;64.60
12769;DHT22;6448;48.916;8.990;2023-02-19T04:46:42;13.80;64.50
12769;DHT22;6448;48.916;8.990;2023-02-19T04:47:45;13.70;64.60
12769;DHT22;6448;48.916;8.990;2023-02-19T04:48:51;13.60;64.40
12769;DHT22;6448;48.916;8.990;2023-02-19T04:50:10;13.60;64.50
12769;DHT22;6448;48.916;8.990;2023-02-19T04:51:15;13.50;64.40
12769;DHT22;6448;48.916;8.990;2023-02-19T04:52:30;13.60;64.70
12769;DHT22;6448;48.916;8.990;2023-02-19T04:53:39;13.60;64.80
12769;DHT22;6448;48.916;8.990;2023-02-19T04:54:45;13.60;64.70
12769;DHT22;6448;48.916;8.990;2023-02-19T04:55:47;13.70;64.80
12769;DHT22;6448;48.916;8.990;2023-02-19T04:57:03;13.50;64.50
12769;DHT22;6448;48.916;8.990;2023-02-19T04:58:06;13.60;64.60
12769;DHT22;6448;48.916;8.990;2023-02-19T04:59:11;13.50;64.50
12769;DHT22;6448;48.916;8.990;2023-02-19T05:00:12;13.50;64.50
12769;DHT22;6448;48.916;8.990;2023-02-19T05:01:14;13.50;64.50
12769;DHT22;6448;48.916;8.990;2023-02-19T05:02:15;13.50;64.50
12769;DHT22;6448;48.916;8.990;2023-02-19T05:03:17;13.50;64.60
12769;DHT22;6448;48.916;8.990;2023-02-19T05:04:22;13.50;64.50
12769;DHT22;6448;48.916;8.990;2023-02-19T05:05:29;13.50;64.60
12769;DHT22;6448;48.916;8.990;2023-02-19T05:06:35;13.60;64.40
12769;DHT22;6448;48.916;8.990;2023-02-19T05:07:37;13.50;64.30
12769;DHT22;6448;48.916;8.990;2023-02-19T05:08:38;13.50;64.30
12769;DHT22;6448;48.916;8.990;2023-02-19T05:09:43;13.50;64.20
12769;DHT22;6448;48.916;8.990;2023-02-19T05:10:43;13.60;64.40
12769;DHT22;6448;48.916;8.990;2023-02-19T05:11:45;13.50;64.30
12769;DHT22;6448;48.916;8.990;2023-02-19T05:12:51;13.60;64.30
12769;DHT22;6448;48.916;8.990;2023-02-19T05:13:54;13.70;64.40
12769;DHT22;6448;48.916;8.990;2023-02-19T05:14:55;13.60;64.30
12769;DHT22;6448;48.916;8.990;2023-02-19T05:16:01;13.50;64.20
12769;DHT22;6448;48.916;8.990;2023-02-19T05:17:09;13.40;64.20
12769;DHT22;6448;48.916;8.990;2023-02-19T05:18:14;13.40;64.30
12769;DHT22;6448;48.916;8.990;2023-02-19T05:19:23;13.40;64.30
12769;DHT22;6448;48.916;8.990;2023-02-19T05:20:24;13.40;64.40
12769;DHT22;6448;48.916;8.990;2023-02-19T05:21:27;13.40;64.30
12769;DHT22;6448;48.916;8.990;2023-02-19T05:22:32;13.40;64.50
12769;DHT22;6448;48.916;8.990;2023-02-19T05:23:40;13.40;64.50
12769;DHT22;6448;48.916;8.990;2023-02-19T05:24:42;13.30;64.60
12769;DHT22;6448;48.916;8.990;2023-02-19T05:25:51;13.40;64.50
12769;DHT22;6448;48.916;8.990;2023-02-19T05:26:53;13.40;64.60
12769;DHT22;6448;48.916;8.990;2023-02-19T05:27:54;13.40;64.60
12769;DHT22;6448;48.916;8.990;2023-02-19T05:29:18;13.40;64.60
12769;DHT22;6448;48.916;8.990;2023-02-19T05:30:20;13.40;64.60
12769;DHT22;6448;48.916;8.990;2023-02-19T05:31:21;13.40;64.50
12769;DHT22;6448;48.916;8.990;2023-02-19T05:32:24;13.50;64.60
12769;DHT22;6448;48.916;8.990;2023-02-19T05:33:35;13.40;64.50
12769;DHT22;6448;48.916;8.990;2023-02-19T05:34:44;13.40;64.50
12769;DHT22;6448;48.916;8.990;2023-02-19T05:35:47;13.40;64.30
12769;DHT22;6448;48.916;8.990;2023-02-19T05:36:49;13.30;64.30
12769;DHT22;6448;48.916;8.990;2023-02-19T05:37:50;13.30;64.20
12769;DHT22;6448;48.916;8.990;2023-02-19T05:39:08;13.40;64.30
12769;DHT22;6448;48.916;8.990;2023-02-19T05:40:20;13.40;64.40
12769;DHT22;6448;48.916;8.990;2023-02-19T05:41:28;13.30;64.30
12769;DHT22;6448;48.916;8.990;2023-02-19T05:42:33;13.40;64.40
12769;DHT22;6448;48.916;8.990;2023-02-19T05:43:34;13.40;64.30
12769;DHT22;6448;48.916;8.990;2023-02-19T05:44:42;13.30;64.20
12769;DHT22;6448;48.916;8.990;2023-02-19T05:45:43;13.40;64.20
12769;DHT22;6448;48.916;8.990;2023-02-19T05:46:52;13.40;64.20
12769;DHT22;6448;48.916;8.990;2023-02-19T05:47:53;13.40;64.20
12769;DHT22;6448;48.916;8.990;2023-02-19T05:48:58;13.40;64.30
12769;DHT22;6448;48.916;8.990;2023-02-19T05:50:00;13.40;64.30
12769;DHT22;6448;48.916;8.990;2023-02-19T05:51:04;13.30;64.20
12769;DHT22;6448;48.916;8.990;2023-02-19T05:52:08;13.40;64.20
12769;DHT22;6448;48.916;8.990;2023-02-19T05:53:10;13.40;64.20
12769;DHT22;6448;48.916;8.990;2023-02-19T05:54:11;13.50;64.20
12769;DHT22;6448;48.916;8.990;2023-02-19T05:55:13;13.40;64.20
12769;DHT22;6448;48.916;8.990;2023-02-19T05:56:29;13.40;64.10
12769;DHT22;6448;48.916;8.990;2023-02-19T05:57:33;13.40;64.10
12769;DHT22;6448;48.916;8.990;2023-02-19T05:58:39;13.40;64.10
12769;DHT22;6448;48.916;8.990;2023-02-19T05:59:43;13.40;64.00
12769;DHT22;6448;48.916;8.990;2023-02-19T06:00:44;13.50;64.00
12769;DHT22;6448;48.916;8.990;2023-02-19T06:01:46;13.20;63.80
12769;DHT22;6448;48.916;8.990;2023-02-19T06:02:48;13.50;64.00
12769;DHT22;6448;48.916;8.990;2023-02-19T06:03:50;13.30;63.80
12769;DHT22;6448;48.916;8.990;2023-02-19T06:04:51;13.50;63.90
12769;DHT22;6448;48.916;8.990;2023-02-19T06:05:54;13.40;63.90
12769;DHT22;6448;48.916;8.990;2023-02-19T06:06:55;13.50;63.90
12769;DHT22;6448;48.916;8.990;2023-02-19T06:07:56;13.30;63.80
12769;DHT22;6448;48.916;8.990;2023-02-19T06:08:57;13.50;63.80
12769;DHT22;6448;48.916;8.990;2023-02-19T06:09:59;13.40;63.80
12769;DHT22;6448;48.916;8.990;2023-02-19T06:11:01;13.40;63.80
12769;DHT22;6448;48.916;8.990;2023-02-19T06:12:02;13.40;63.70
12769;DHT22;6448;48.916;8.990;2023-02-19T06:13:04;13.40;63.90
12769;DHT22;6448;48.916;8.990;2023-02-19T06:14:05;13.40;63.80
12769;DHT22;6448;48.916;8.990;2023-02-19T06:15:11;13.40;63.80
12769;DHT22;6448;48.916;8.990;2023-02-19T06:16:12;13.50;63.70
12769;DHT22;6448;48.916;8.990;2023-02-19T06:17:14;13.40;63.60
12769;DHT22;6448;48.916;8.990;2023-02-19T06:18:17;13.50;63.50
12769;DHT22;6448;48.916;8.990;2023-02-19T06:19:19;13.40;63.60
12769;DHT22;6448;48.916;8.990;2023-02-19T06:20:21;13.40;63.50
12769;DHT22;6448;48.916;8.990;2023-02-19T06:21:23;13.70;63.50
12769;DHT22;6448;48.916;8.990;2023-02-19T06:22:26;13.40;63.40
12769;DHT22;6448;48.916;8.990;2023-02-19T06:23:35;13.40;63.40
12769;DHT22;6448;48.916;8.990;2023-02-19T06:24:37;13.50;63.30
12769;DHT22;6448;48.916;8.990;2023-02-19T06:25:39;13.50;63.30
12769;DHT22;6448;48.916;8.990;2023-02-19T06:26:40;13.70;63.30
12769;DHT22;6448;48.916;8.990;2023-02-19T06:27:41;13.40;63.10
12769;DHT22;6448;48.916;8.990;2023-02-19T06:28:43;13.40;63.10
12769;DHT22;6448;48.916;8.990;2023-02-19T06:29:45;13.40;63.10
12769;DHT22;6448;48.916;8.990;2023-02-19T06:30:46;13.40;63.10
12769;DHT22;6448;48.916;8.990;2023-02-19T06:31:48;13.40;62.90
12769;DHT22;6448;48.916;8.990;2023-02-19T06:32:51;13.50;63.10
12769;DHT22;6448;48.916;8.990;2023-02-19T06:33:57;13.40;62.90
12769;DHT22;6448;48.916;8.990;2023-02-19T06:35:02;13.50;62.80
12769;DHT22;6448;48.916;8.990;2023-02-19T06:36:10;13.50;62.90
12769;DHT22;6448;48.916;8.990;2023-02-19T06:37:19;13.50;62.90
12769;DHT22;6448;48.916;8.990;2023-02-19T06:38:23;13.50;63.60
12769;DHT22;6448;48.916;8.990;2023-02-19T06:39:26;13.60;62.80
12769;DHT22;6448;48.916;8.990;2023-02-19T06:40:28;13.40;62.70
12769;DHT22;6448;48.916;8.990;2023-02-19T06:41:32;13.40;62.60
12769;DHT22;6448;48.916;8.990;2023-02-19T06:42:37;13.40;62.50
12769;DHT22;6448;48.916;8.990;2023-02-19T06:43:38;13.50;62.60
12769;DHT22;6448;48.916;8.990;2023-02-19T06:44:46;13.60;62.60
12769;DHT22;6448;48.916;8.990;2023-02-19T06:45:52;13.50;62.60
12769;DHT22;6448;48.916;8.990;2023-02-19T06:46:56;13.50;62.60
12769;DHT22;6448;48.916;8.990;2023-02-19T06:48:02;13.50;62.50
12769;DHT22;6448;48.916;8.990;2023-02-19T06:49:06;13.60;62.60
12769;DHT22;6448;48.916;8.990;2023-02-19T06:50:30;13.40;62.40
12769;DHT22;6448;48.916;8.990;2023-02-19T06:51:31;13.40;62.30
12769;DHT22;6448;48.916;8.990;2023-02-19T06:52:39;13.50;62.40
12769;DHT22;6448;48.916;8.990;2023-02-19T06:53:44;13.50;62.40
12769;DHT22;6448;48.916;8.990;2023-02-19T06:54:48;13.50;62.40
12769;DHT22;6448;48.916;8.990;2023-02-19T06:56:00;13.40;62.30
12769;DHT22;6448;48.916;8.990;2023-02-19T06:57:08;13.50;62.50
12769;DHT22;6448;48.916;8.990;2023-02-19T06:58:09;13.60;62.30
12769;DHT22;6448;48.916;8.990;2023-02-19T06:59:15;13.50;62.30
12769;DHT22;6448;48.916;8.990;2023-02-19T07:00:18;13.50;62.30
12769;DHT22;6448;48.916;8.990;2023-02-19T07:01:26;13.50;62.20
12769;DHT22;6448;48.916;8.990;2023-02-19T07:02:37;13.50;62.30
12769;DHT22;6448;48.916;8.990;2023-02-19T07:03:41;13.40;62.20
12769;DHT22;6448;48.916;8.990;2023-02-19T07:04:53;13.50;62.10
12769;DHT22;6448;48.916;8.990;2023-02-19T07:05:58;13.50;62.10
12769;DHT22;6448;48.916;8.990;2023-02-19T07:07:10;13.50;62.00
12769;DHT22;6448;48.916;8.990;2023-02-19T07:08:29;13.50;62.00
12769;DHT22;6448;48.916;8.990;2023-02-19T07:09:49;13.40;62.10
12769;DHT22;6448;48.916;8.990;2023-02-19T07:10:56;13.60;62.10
12769;DHT22;6448;48.916;8.990;2023-02-19T07:11:57;13.50;62.10
12769;DHT22;6448;48.916;8.990;2023-02-19T07:13:08;13.30;61.90
12769;DHT22;6448;48.916;8.990;2023-02-19T07:14:18;13.60;62.00
12769;DHT22;6448;48.916;8.990;2023-02-19T07:15:33;13.60;62.10
12769;DHT22;6448;48.916;8.990;2023-02-19T07:16:35;13.70;62.20
12769;DHT22;6448;48.916;8.990;2023-02-19T07:17:43;13.60;62.00
12769;DHT22;6448;48.916;8.990;2023-02-19T07:18:44;13.50;62.00
12769;DHT22;6448;48.916;8.990;2023-02-19T07:19:46;13.50;62.10
12769;DHT22;6448;48.916;8.990;2023-02-19T07:20:52;13.50;62.00
12769;DHT22;6448;48.916;8.990;2023-02-19T07:21:58;13.50;62.10
12769;DHT22;6448;48.916;8.990;2023-02-19T07:23:04;13.40;61.90
12769;DHT22;6448;48.916;8.990;2023-02-19T07:24:08;13.50;62.00
12769;DHT22;6448;48.916;8.990;2023-02-19T07:25:16;13.40;61.90
12769;DHT22;6448;48.916;8.990;2023-02-19T07:27:50;13.50;61.90
12769;DHT22;6448;48.916;8.990;2023-02-19T07:29:11;13.60;61.90
12769;DHT22;6448;48.916;8.990;2023-02-19T07:30:21;13.50;61.70
12769;DHT22;6448;48.916;8.990;2023-02-19T07:31:25;13.60;61.70
12769;DHT22;6448;48.916;8.990;2023-02-19T07:32:35;13.60;61.70
12769;DHT22;6448;48.916;8.990;2023-02-19T07:35:18;13.50;61.70
12769;DHT22;6448;48.916;8.990;2023-02-19T07:36:25;13.70;61.80
12769;DHT22;6448;48.916;8.990;2023-02-19T07:37:45;13.50;61.70
12769;DHT22;6448;48.916;8.990;2023-02-19T07:38:54;13.50;61.60
12769;DHT22;6448;48.916;8.990;2023-02-19T07:39:58;13.40;61.50
12769;DHT22;6448;48.916;8.990;2023-02-19T07:41:00;13.50;61.40
12769;DHT22;6448;48.916;8.990;2023-02-19T07:42:02;13.60;61.50
12769;DHT22;6448;48.916;8.990;2023-02-19T07:43:06;13.60;61.40
12769;DHT22;6448;48.916;8.990;2023-02-19T07:44:06;13.50;61.30
12769;DHT22;6448;48.916;8.990;2023-02-19T07:45:08;13.50;61.40
12769;DHT22;6448;48.916;8.990;2023-02-19T07:46:11;13.50;61.30
12769;DHT22;6448;48.916;8.990;2023-02-19T07:47:13;13.60;61.40
12769;DHT22;6448;48.916;8.990;2023-02-19T07:48:14;13.60;61.30
12769;DHT22;6448;48.916;8.990;2023-02-19T07:49:16;13.50;61.20
12769;DHT22;6448;48.916;8.990;2023-02-19T07:50:18;13.60;61.30
12769;DHT22;6448;48.916;8.990;2023-02-19T07:51:20;13.40;61.20
12769;DHT22;6448;48.916;8.990;2023-02-19T07:52:27;13.60;61.20
12769;DHT22;6448;48.916;8.990;2023-02-19T07:53:43;13.50;61.10
12769;DHT22;6448;48.916;8.990;2023-02-19T07:54:44;13.60;61.20
12769;DHT22;6448;48.916;8.990;2023-02-19T07:55:51;13.60;61.10
12769;DHT22;6448;48.916;8.990;2023-02-19T07:57:02;13.60;61.10
12769;DHT22;6448;48.916;8.990;2023-02-19T07:58:23;13.60;61.10
12769;DHT22;6448;48.916;8.990;2023-02-19T07:59:40;13.70;61.20
12769;DHT22;6448;48.916;8.990;2023-02-19T08:00:52;13.60;61.10
12769;DHT22;6448;48.916;8.990;2023-02-19T08:01:59;13.60;61.00
12769;DHT22;6448;48.916;8.990;2023-02-19T08:03:24;13.60;60.90
12769;DHT22;6448;48.916;8.990;2023-02-19T08:04:30;13.60;60.90
12769;DHT22;6448;48.916;8.990;2023-02-19T08:05:44;13.80;61.00
12769;DHT22;6448;48.916;8.990;2023-02-19T08:07:12;13.90;61.10
12769;DHT22;6448;48.916;8.990;2023-02-19T08:09:49;13.70;60.80
12769;DHT22;6448;48.916;8.990;2023-02-19T08:11:22;13.70;60.80
12769;DHT22;6448;48.916;8.990;2023-02-19T08:13:13;13.70;60.80
12769;DHT22;6448;48.916;8.990;2023-02-19T08:14:40;13.70;60.80
12769;DHT22;6448;48.916;8.990;2023-02-19T08:15:47;13.70;60.70
12769;DHT22;6448;48.916;8.990;2023-02-19T08:17:05;13.70;60.70
12769;DHT22;6448;48.916;8.990;2023-02-19T08:18:24;13.70;60.70
12769;DHT22;6448;48.916;8.990;2023-02-19T08:19:42;13.70;60.60
12769;DHT22;6448;48.916;8.990;2023-02-19T08:20:53;13.80;60.60
12769;DHT22;6448;48.916;8.990;2023-02-19T08:21:55;13.80;60.60
12769;DHT22;6448;48.916;8.990;2023-02-19T08:24:50;13.80;60.50
12769;DHT22;6448;48.916;8.990;2023-02-19T08:25:29;13.70;60.30
12769;DHT22;6448;48.916;8.990;2023-02-19T08:27:13;13.80;60.20
12769;DHT22;6448;48.916;8.990;2023-02-19T08:28:34;13.80;60.20
12769;DHT22;6448;48.916;8.990;2023-02-19T08:32:52;13.80;60.20
12769;DHT22;6448;48.916;8.990;2023-02-19T08:34:51;13.70;60.20
12769;DHT22;6448;48.916;8.990;2023-02-19T08:36:11;13.80;60.20
12769;DHT22;6448;48.916;8.990;2023-02-19T08:37:33;13.70;60.20
12769;DHT22;6448;48.916;8.990;2023-02-19T08:39:16;13.80;60.30
12769;DHT22;6448;48.916;8.990;2023-02-19T08:40:38;13.80;60.20
12769;DHT22;6448;48.916;8.990;2023-02-19T08:42:18;13.70;60.10
12769;DHT22;6448;48.916;8.990;2023-02-19T08:45:37;13.70;60.10
12769;DHT22;6448;48.916;8.990;2023-02-19T08:46:03;13.80;60.10
12769;DHT22;6448;48.916;8.990;2023-02-19T08:47:27;13.80;60.10
12769;DHT22;6448;48.916;8.990;2023-02-19T08:49:06;13.70;60.10
12769;DHT22;6448;48.916;8.990;2023-02-19T08:50:27;13.80;60.10
12769;DHT22;6448;48.916;8.990;2023-02-19T08:52:23;13.80;60.00
12769;DHT22;6448;48.916;8.990;2023-02-19T08:55:36;13.80;60.00
12769;DHT22;6448;48.916;8.990;2023-02-19T08:58:50;13.90;60.10
12769;DHT22;6448;48.916;8.990;2023-02-19T09:00:46;13.80;60.00
12769;DHT22;6448;48.916;8.990;2023-02-19T09:05:22;13.80;60.00
12769;DHT22;6448;48.916;8.990;2023-02-19T09:06:51;13.80;60.00
12769;DHT22;6448;48.916;8.990;2023-02-19T09:08:10;13.80;59.80
12769;DHT22;6448;48.916;8.990;2023-02-19T09:10:02;13.80;59.90
12769;DHT22;6448;48.916;8.990;2023-02-19T09:13:32;13.80;59.80
12769;DHT22;6448;48.916;8.990;2023-02-19T09:17:54;13.90;59.90
12769;DHT22;6448;48.916;8.990;2023-02-19T09:19:52;13.80;59.90